sensor_id;sensor_type;location;lat;lon;timestamp;temperature;humidity
55004;DHT22;40900;52.710;6.438;2022-10-26T00:38:23;10.90;99.90
55004;DHT22;40900;52.710;6.438;2022-10-26T00:40:49;10.90;99.90
55004;DHT22;40900;52.710;6.438;2022-10-26T00:43:33;10.80;99.90
55004;DHT22;40900;52.710;6.438;2022-10-26T00:46:01;10.80;99.90
55004;DHT22;40900;52.710;6.438;2022-10-26T00:48:30;10.80;99.90
55004;DHT22;40900;52.710;6.438;2022-10-26T00:51:02;10.80;99.90
55004;DHT22;40900;52.710;6.438;2022-10-26T00:53:31;10.80;99.90
55004;DHT22;40900;52.710;6.438;2022-10-26T00:55:57;10.80;99.90
55004;DHT22;40900;52.710;6.438;2022-10-26T00:58:24;10.80;99.90
55004;DHT22;40900;52.710;6.438;2022-10-26T01:00:51;10.80;99.90
55004;DHT22;40900;52.710;6.438;2022-10-26T01:03:17;10.70;99.90
55004;DHT22;40900;52.710;6.438;2022-10-26T01:05:44;10.70;99.90
55004;DHT22;40900;52.710;6.438;2022-10-26T01:08:10;10.70;99.90
55004;DHT22;40900;52.710;6.438;2022-10-26T01:10:39;10.70;99.90
55004;DHT22;40900;52.710;6.438;2022-10-26T01:13:06;10.70;99.90
55004;DHT22;40900;52.710;6.438;2022-10-26T01:15:37;10.70;99.90
55004;DHT22;40900;52.710;6.438;2022-10-26T01:21:19;10.60;99.90
55004;DHT22;40900;52.710;6.438;2022-10-26T01:26:43;10.70;99.90
55004;DHT22;40900;52.710;6.438;2022-10-26T01:31:49;10.60;99.90
55004;DHT22;40900;52.710;6.438;2022-10-26T01:34:43;10.60;99.90
55004;DHT22;40900;52.710;6.438;2022-10-26T01:37:20;10.60;99.90
55004;DHT22;40900;52.710;6.438;2022-10-26T01:42:33;10.60;99.90
55004;DHT22;40900;52.710;6.438;2022-10-26T01:45:03;10.50;99.90
55004;DHT22;40900;52.710;6.438;2022-10-26T01:47:32;10.50;99.90
55004;DHT22;40900;52.710;6.438;2022-10-26T01:50:00;10.50;99.90
55004;DHT22;40900;52.710;6.438;2022-10-26T01:52:27;10.50;99.90
55004;DHT22;40900;52.710;6.438;2022-10-26T01:55:36;10.50;99.90
55004;DHT22;40900;52.710;6.438;2022-10-26T01:57:45;10.50;99.90
55004;DHT22;40900;52.710;6.438;2022-10-26T02:00:11;10.50;99.90
55004;DHT22;40900;52.710;6.438;2022-10-26T02:11:20;10.50;99.90
55004;DHT22;40900;52.710;6.438;2022-10-26T02:17:04;10.50;99.90
55004;DHT22;40900;52.710;6.438;2022-10-26T02:19:44;10.50;99.90
55004;DHT22;40900;52.710;6.438;2022-10-26T02:22:23;10.50;99.90
55004;DHT22;40900;52.710;6.438;2022-10-26T02:24:52;10.50;99.90
55004;DHT22;40900;52.710;6.438;2022-10-26T02:27:30;10.50;99.90
55004;DHT22;40900;52.710;6.438;2022-10-26T02:29:58;10.50;99.90
55004;DHT22;40900;52.710;6.438;2022-10-26T02:32:26;10.50;99.90
55004;DHT22;40900;52.710;6.438;2022-10-26T02:34:56;10.40;99.90
55004;DHT22;40900;52.710;6.438;2022-10-26T02:37:24;10.40;99.90
55004;DHT22;40900;52.710;6.438;2022-10-26T02:39:54;10.40;99.90
55004;DHT22;40900;52.710;6.438;2022-10-26T02:42:21;10.40;99.90
55004;DHT22;40900;52.710;6.438;2022-10-26T02:44:51;10.40;99.90
55004;DHT22;40900;52.710;6.438;2022-10-26T02:47:18;10.40;99.90
55004;DHT22;40900;52.710;6.438;2022-10-26T02:49:45;10.40;99.90
55004;DHT22;40900;52.710;6.438;2022-10-26T02:55:02;10.40;99.90
55004;DHT22;40900;52.710;6.438;2022-10-26T02:57:38;10.40;99.90
55004;DHT22;40900;52.710;6.438;2022-10-26T03:00:09;10.40;99.90
55004;DHT22;40900;52.710;6.438;2022-10-26T03:02:36;10.40;99.90
55004;DHT22;40900;52.710;6.438;2022-10-26T03:05:13;10.30;99.90
55004;DHT22;40900;52.710;6.438;2022-10-26T03:07:39;10.40;99.90
55004;DHT22;40900;52.710;6.438;2022-10-26T03:10:06;10.30;99.90
55004;DHT22;40900;52.710;6.438;2022-10-26T03:12:32;10.30;99.90
55004;DHT22;40900;52.710;6.438;2022-10-26T03:14:57;10.30;99.90
55004;DHT22;40900;52.710;6.438;2022-10-26T03:17:23;10.30;99.90
55004;DHT22;40900;52.710;6.438;2022-10-26T03:19:48;10.30;99.90
55004;DHT22;40900;52.710;6.438;2022-10-26T03:22:14;10.30;99.90
55004;DHT22;40900;52.710;6.438;2022-10-26T03:24:40;10.30;99.90
55004;DHT22;40900;52.710;6.438;2022-10-26T03:27:05;10.20;99.90
55004;DHT22;40900;52.710;6.438;2022-10-26T03:29:31;10.20;99.90
55004;DHT22;40900;52.710;6.438;2022-10-26T03:31:57;10.20;99.90
55004;DHT22;40900;52.710;6.438;2022-10-26T03:34:22;10.10;99.90
55004;DHT22;40900;52.710;6.438;2022-10-26T03:36:48;10.10;99.90
55004;DHT22;40900;52.710;6.438;2022-10-26T03:39:14;10.10;99.90
55004;DHT22;40900;52.710;6.438;2022-10-26T03:41:39;10.10;99.90
55004;DHT22;40900;52.710;6.438;2022-10-26T03:44:05;10.10;99.90
55004;DHT22;40900;52.710;6.438;2022-10-26T03:46:31;10.10;99.90
55004;DHT22;40900;52.710;6.438;2022-10-26T03:48:57;10.10;99.90
55004;DHT22;40900;52.710;6.438;2022-10-26T03:51:22;10.10;99.90
55004;DHT22;40900;52.710;6.438;2022-10-26T03:53:48;10.00;99.90
55004;DHT22;40900;52.710;6.438;2022-10-26T03:56:14;10.00;99.90
55004;DHT22;40900;52.710;6.438;2022-10-26T03:58:39;10.00;99.90
55004;DHT22;40900;52.710;6.438;2022-10-26T04:01:05;10.00;99.90
55004;DHT22;40900;52.710;6.438;2022-10-26T04:03:31;10.00;99.90
55004;DHT22;40900;52.710;6.438;2022-10-26T04:06:00;10.00;99.90
55004;DHT22;40900;52.710;6.438;2022-10-26T04:08:25;10.00;99.90
55004;DHT22;40900;52.710;6.438;2022-10-26T04:10:51;10.00;99.90
55004;DHT22;40900;52.710;6.438;2022-10-26T04:13:17;10.00;99.90
55004;DHT22;40900;52.710;6.438;2022-10-26T04:15:43;10.00;99.90
55004;DHT22;40900;52.710;6.438;2022-10-26T04:18:09;10.10;99.90
55004;DHT22;40900;52.710;6.438;2022-10-26T04:20:38;10.10;99.90
55004;DHT22;40900;52.710;6.438;2022-10-26T04:23:07;10.10;99.90
55004;DHT22;40900;52.710;6.438;2022-10-26T04:25:34;10.10;99.90
55004;DHT22;40900;52.710;6.438;2022-10-26T04:28:01;10.10;99.90
55004;DHT22;40900;52.710;6.438;2022-10-26T04:30:28;10.20;99.90
55004;DHT22;40900;52.710;6.438;2022-10-26T04:32:53;10.20;99.90
55004;DHT22;40900;52.710;6.438;2022-10-26T04:35:19;10.20;99.90
55004;DHT22;40900;52.710;6.438;2022-10-26T04:37:45;10.20;99.90
55004;DHT22;40900;52.710;6.438;2022-10-26T04:40:11;10.20;99.90
55004;DHT22;40900;52.710;6.438;2022-10-26T04:42:44;10.20;99.90
55004;DHT22;40900;52.710;6.438;2022-10-26T04:45:12;10.20;99.90
55004;DHT22;40900;52.710;6.438;2022-10-26T04:47:38;10.30;99.90
55004;DHT22;40900;52.710;6.438;2022-10-26T04:50:05;10.20;99.90
55004;DHT22;40900;52.710;6.438;2022-10-26T04:52:31;10.20;99.90
55004;DHT22;40900;52.710;6.438;2022-10-26T04:54:57;10.20;99.90
55004;DHT22;40900;52.710;6.438;2022-10-26T04:57:22;10.20;99.90
55004;DHT22;40900;52.710;6.438;2022-10-26T04:59:48;10.20;99.90
55004;DHT22;40900;52.710;6.438;2022-10-26T05:02:14;10.30;99.90
55004;DHT22;40900;52.710;6.438;2022-10-26T05:04:39;10.30;99.90
55004;DHT22;40900;52.710;6.438;2022-10-26T05:07:05;10.20;99.90
55004;DHT22;40900;52.710;6.438;2022-10-26T05:09:31;10.20;99.90
55004;DHT22;40900;52.710;6.438;2022-10-26T05:11:56;10.30;99.90
55004;DHT22;40900;52.710;6.438;2022-10-26T05:14:22;10.30;99.90
55004;DHT22;40900;52.710;6.438;2022-10-26T05:16:49;10.30;99.90
55004;DHT22;40900;52.710;6.438;2022-10-26T05:19:15;10.30;99.90
55004;DHT22;40900;52.710;6.438;2022-10-26T05:21:41;10.30;99.90
55004;DHT22;40900;52.710;6.438;2022-10-26T05:24:07;10.30;99.90
55004;DHT22;40900;52.710;6.438;2022-10-26T05:26:32;10.30;99.90
55004;DHT22;40900;52.710;6.438;2022-10-26T05:28:58;10.30;99.90
55004;DHT22;40900;52.710;6.438;2022-10-26T05:31:24;10.30;99.90
55004;DHT22;40900;52.710;6.438;2022-10-26T05:33:50;10.40;99.90
55004;DHT22;40900;52.710;6.438;2022-10-26T05:36:17;10.40;99.90
55004;DHT22;40900;52.710;6.438;2022-10-26T05:38:43;10.40;99.90
55004;DHT22;40900;52.710;6.438;2022-10-26T05:41:08;10.50;99.90
55004;DHT22;40900;52.710;6.438;2022-10-26T05:43:34;10.50;99.90
55004;DHT22;40900;52.710;6.438;2022-10-26T05:46:00;10.50;99.90
55004;DHT22;40900;52.710;6.438;2022-10-26T05:48:25;10.50;99.90
55004;DHT22;40900;52.710;6.438;2022-10-26T05:50:51;10.50;99.90
55004;DHT22;40900;52.710;6.438;2022-10-26T05:53:17;10.50;99.90
55004;DHT22;40900;52.710;6.438;2022-10-26T05:55:43;10.50;99.90
55004;DHT22;40900;52.710;6.438;2022-10-26T05:58:13;10.50;99.90
55004;DHT22;40900;52.710;6.438;2022-10-26T06:01:33;10.50;99.90
55004;DHT22;40900;52.710;6.438;2022-10-26T06:06:32;10.60;99.90
55004;DHT22;40900;52.710;6.438;2022-10-26T06:09:01;10.60;99.90
55004;DHT22;40900;52.710;6.438;2022-10-26T06:11:27;10.60;99.90
55004;DHT22;40900;52.710;6.438;2022-10-26T06:13:52;10.60;99.90
55004;DHT22;40900;52.710;6.438;2022-10-26T06:25:34;10.60;99.90
55004;DHT22;40900;52.710;6.438;2022-10-26T06:31:06;10.60;99.90
55004;DHT22;40900;52.710;6.438;2022-10-26T06:33:32;10.60;99.90
55004;DHT22;40900;52.710;6.438;2022-10-26T06:36:11;10.60;99.90
55004;DHT22;40900;52.710;6.438;2022-10-26T06:38:39;10.60;99.90
55004;DHT22;40900;52.710;6.438;2022-10-26T06:41:10;10.60;99.90
55004;DHT22;40900;52.710;6.438;2022-10-26T06:43:39;10.60;99.90
55004;DHT22;40900;52.710;6.438;2022-10-26T06:46:32;10.70;99.90
55004;DHT22;40900;52.710;6.438;2022-10-26T06:52:28;10.70;99.90
55004;DHT22;40900;52.710;6.438;2022-10-26T06:54:56;10.80;99.90
55004;DHT22;40900;52.710;6.438;2022-10-26T06:57:26;10.80;99.90
55004;DHT22;40900;52.710;6.438;2022-10-26T07:00:01;10.80;99.90
55004;DHT22;40900;52.710;6.438;2022-10-26T07:02:27;10.90;99.90
55004;DHT22;40900;52.710;6.438;2022-10-26T07:04:53;11.00;99.90
55004;DHT22;40900;52.710;6.438;2022-10-26T07:07:20;11.00;99.90
55004;DHT22;40900;52.710;6.438;2022-10-26T07:09:47;11.10;99.90
55004;DHT22;40900;52.710;6.438;2022-10-26T07:12:13;11.20;99.90
55004;DHT22;40900;52.710;6.438;2022-10-26T07:14:39;11.20;99.90
55004;DHT22;40900;52.710;6.438;2022-10-26T07:17:05;11.20;99.90
55004;DHT22;40900;52.710;6.438;2022-10-26T07:19:31;11.20;99.90
55004;DHT22;40900;52.710;6.438;2022-10-26T07:21:57;11.20;99.90
55004;DHT22;40900;52.710;6.438;2022-10-26T07:24:29;11.20;99.90
55004;DHT22;40900;52.710;6.438;2022-10-26T07:26:56;11.30;99.90
55004;DHT22;40900;52.710;6.438;2022-10-26T07:29:23;11.30;99.90
55004;DHT22;40900;52.710;6.438;2022-10-26T07:31:49;11.40;99.90
55004;DHT22;40900;52.710;6.438;2022-10-26T07:34:15;11.40;99.90
55004;DHT22;40900;52.710;6.438;2022-10-26T07:36:41;11.60;99.90
55004;DHT22;40900;52.710;6.438;2022-10-26T07:39:07;11.70;99.90
55004;DHT22;40900;52.710;6.438;2022-10-26T07:41:33;11.80;99.90
55004;DHT22;40900;52.710;6.438;2022-10-26T07:43:59;11.90;99.90
55004;DHT22;40900;52.710;6.438;2022-10-26T07:46:25;12.00;99.90
55004;DHT22;40900;52.710;6.438;2022-10-26T07:48:51;12.10;99.90
55004;DHT22;40900;52.710;6.438;2022-10-26T07:51:17;12.20;99.90
55004;DHT22;40900;52.710;6.438;2022-10-26T07:53:44;12.30;99.90
55004;DHT22;40900;52.710;6.438;2022-10-26T07:56:10;12.60;99.90
55004;DHT22;40900;52.710;6.438;2022-10-26T07:58:36;12.80;99.90
55004;DHT22;40900;52.710;6.438;2022-10-26T08:01:09;13.00;99.90
55004;DHT22;40900;52.710;6.438;2022-10-26T08:03:35;13.00;99.90
55004;DHT22;40900;52.710;6.438;2022-10-26T08:06:01;13.10;99.90
55004;DHT22;40900;52.710;6.438;2022-10-26T08:08:29;13.10;99.90
55004;DHT22;40900;52.710;6.438;2022-10-26T08:10:55;13.10;99.90
55004;DHT22;40900;52.710;6.438;2022-10-26T08:13:21;13.10;99.90
55004;DHT22;40900;52.710;6.438;2022-10-26T08:15:47;13.10;99.90
55004;DHT22;40900;52.710;6.438;2022-10-26T08:18:13;13.10;99.90
55004;DHT22;40900;52.710;6.438;2022-10-26T08:20:38;13.10;99.90
55004;DHT22;40900;52.710;6.438;2022-10-26T08:23:04;13.10;99.90
55004;DHT22;40900;52.710;6.438;2022-10-26T08:25:31;13.10;99.90
55004;DHT22;40900;52.710;6.438;2022-10-26T08:28:01;13.10;99.90
55004;DHT22;40900;52.710;6.438;2022-10-26T08:30:31;13.10;99.90
55004;DHT22;40900;52.710;6.438;2022-10-26T08:33:02;13.20;99.90
55004;DHT22;40900;52.710;6.438;2022-10-26T08:35:28;13.20;99.90
55004;DHT22;40900;52.710;6.438;2022-10-26T08:37:54;13.20;99.90
55004;DHT22;40900;52.710;6.438;2022-10-26T08:40:26;13.30;99.90
55004;DHT22;40900;52.710;6.438;2022-10-26T08:43:00;13.30;99.90
55004;DHT22;40900;52.710;6.438;2022-10-26T08:45:37;13.40;99.90
55004;DHT22;40900;52.710;6.438;2022-10-26T08:48:17;13.50;99.90
55004;DHT22;40900;52.710;6.438;2022-10-26T08:50:51;13.70;99.90
55004;DHT22;40900;52.710;6.438;2022-10-26T08:53:52;13.80;99.90
55004;DHT22;40900;52.710;6.438;2022-10-26T08:56:28;14.20;99.90
55004;DHT22;40900;52.710;6.438;2022-10-26T09:01:25;16.30;99.90
55004;DHT22;40900;52.710;6.438;2022-10-26T09:03:51;17.60;99.90
55004;DHT22;40900;52.710;6.438;2022-10-26T09:06:50;18.90;99.90
55004;DHT22;40900;52.710;6.438;2022-10-26T09:10:10;20.00;99.90
55004;DHT22;40900;52.710;6.438;2022-10-26T09:15:59;22.30;99.90
55004;DHT22;40900;52.710;6.438;2022-10-26T09:18:35;22.40;99.90
55004;DHT22;40900;52.710;6.438;2022-10-26T09:24:13;22.80;99.90
55004;DHT22;40900;52.710;6.438;2022-10-26T09:26:54;23.30;99.90
55004;DHT22;40900;52.710;6.438;2022-10-26T09:29:34;23.60;99.90
55004;DHT22;40900;52.710;6.438;2022-10-26T09:32:03;23.60;99.90
55004;DHT22;40900;52.710;6.438;2022-10-26T09:34:40;24.10;99.90
55004;DHT22;40900;52.710;6.438;2022-10-26T09:37:20;24.20;99.90
55004;DHT22;40900;52.710;6.438;2022-10-26T09:40:14;24.70;99.90
55004;DHT22;40900;52.710;6.438;2022-10-26T09:43:01;25.40;99.90
55004;DHT22;40900;52.710;6.438;2022-10-26T09:45:36;24.40;99.90
55004;DHT22;40900;52.710;6.438;2022-10-26T09:50:45;22.70;99.90
55004;DHT22;40900;52.710;6.438;2022-10-26T09:53:11;22.60;99.90
55004;DHT22;40900;52.710;6.438;2022-10-26T09:55:46;21.70;99.90
55004;DHT22;40900;52.710;6.438;2022-10-26T09:58:16;21.90;99.90
55004;DHT22;40900;52.710;6.438;2022-10-26T10:00:43;22.40;99.90
55004;DHT22;40900;52.710;6.438;2022-10-26T10:03:24;22.80;99.90
55004;DHT22;40900;52.710;6.438;2022-10-26T10:05:50;23.60;99.90
55004;DHT22;40900;52.710;6.438;2022-10-26T10:08:26;24.10;99.90
55004;DHT22;40900;52.710;6.438;2022-10-26T10:11:06;24.70;99.90
55004;DHT22;40900;52.710;6.438;2022-10-26T10:13:35;25.80;99.90
55004;DHT22;40900;52.710;6.438;2022-10-26T10:16:07;26.10;99.90
55004;DHT22;40900;52.710;6.438;2022-10-26T10:18:34;26.20;99.90
55004;DHT22;40900;52.710;6.438;2022-10-26T10:21:03;26.00;99.90
55004;DHT22;40900;52.710;6.438;2022-10-26T10:23:35;26.10;99.90
55004;DHT22;40900;52.710;6.438;2022-10-26T10:26:04;26.00;99.90
55004;DHT22;40900;52.710;6.438;2022-10-26T10:28:31;25.80;99.90
55004;DHT22;40900;52.710;6.438;2022-10-26T10:31:21;25.70;99.90
55004;DHT22;40900;52.710;6.438;2022-10-26T10:33:47;25.90;99.90
55004;DHT22;40900;52.710;6.438;2022-10-26T10:36:17;25.90;99.90
55004;DHT22;40900;52.710;6.438;2022-10-26T10:38:45;26.20;99.80
55004;DHT22;40900;52.710;6.438;2022-10-26T10:41:23;26.50;99.90
55004;DHT22;40900;52.710;6.438;2022-10-26T10:43:53;26.30;99.90
55004;DHT22;40900;52.710;6.438;2022-10-26T10:46:23;26.20;99.90
55004;DHT22;40900;52.710;6.438;2022-10-26T10:49:04;26.20;99.90
55004;DHT22;40900;52.710;6.438;2022-10-26T10:51:36;25.60;99.90
55004;DHT22;40900;52.710;6.438;2022-10-26T10:54:04;25.10;99.90
55004;DHT22;40900;52.710;6.438;2022-10-26T10:56:50;24.20;99.90
55004;DHT22;40900;52.710;6.438;2022-10-26T11:02:00;23.50;99.90
55004;DHT22;40900;52.710;6.438;2022-10-26T11:07:21;22.10;99.90
55004;DHT22;40900;52.710;6.438;2022-10-26T11:09:48;21.60;99.90
55004;DHT22;40900;52.710;6.438;2022-10-26T11:12:29;21.50;99.90
55004;DHT22;40900;52.710;6.438;2022-10-26T11:15:00;21.30;99.90
55004;DHT22;40900;52.710;6.438;2022-10-26T11:20:18;21.20;99.90
55004;DHT22;40900;52.710;6.438;2022-10-26T11:25:24;20.70;99.90
55004;DHT22;40900;52.710;6.438;2022-10-26T11:28:04;20.70;99.90
55004;DHT22;40900;52.710;6.438;2022-10-26T11:30:36;20.50;99.90
55004;DHT22;40900;52.710;6.438;2022-10-26T11:33:35;20.40;99.90
55004;DHT22;40900;52.710;6.438;2022-10-26T11:36:08;20.30;99.90
55004;DHT22;40900;52.710;6.438;2022-10-26T11:41:15;20.20;99.90
55004;DHT22;40900;52.710;6.438;2022-10-26T11:43:49;20.20;99.90
55004;DHT22;40900;52.710;6.438;2022-10-26T11:52:01;20.10;99.90
55004;DHT22;40900;52.710;6.438;2022-10-26T11:54:41;20.10;99.90
55004;DHT22;40900;52.710;6.438;2022-10-26T11:57:10;20.10;99.90
55004;DHT22;40900;52.710;6.438;2022-10-26T11:59:43;20.10;99.90
55004;DHT22;40900;52.710;6.438;2022-10-26T12:02:20;20.00;99.90
55004;DHT22;40900;52.710;6.438;2022-10-26T12:04:55;20.00;99.90
55004;DHT22;40900;52.710;6.438;2022-10-26T12:07:28;20.20;99.90
55004;DHT22;40900;52.710;6.438;2022-10-26T12:09:56;20.00;99.90
55004;DHT22;40900;52.710;6.438;2022-10-26T12:12:35;20.00;99.90
55004;DHT22;40900;52.710;6.438;2022-10-26T12:15:17;20.10;99.90
55004;DHT22;40900;52.710;6.438;2022-10-26T12:23:30;20.10;99.90
55004;DHT22;40900;52.710;6.438;2022-10-26T12:28:45;20.00;99.90
55004;DHT22;40900;52.710;6.438;2022-10-26T12:33:59;20.00;99.90
55004;DHT22;40900;52.710;6.438;2022-10-26T12:39:40;20.00;99.90
55004;DHT22;40900;52.710;6.438;2022-10-26T13:00:16;19.60;99.90
55004;DHT22;40900;52.710;6.438;2022-10-26T13:02:54;19.60;99.90
55004;DHT22;40900;52.710;6.438;2022-10-26T13:08:11;19.50;99.90
55004;DHT22;40900;52.710;6.438;2022-10-26T13:10:58;19.50;99.90
55004;DHT22;40900;52.710;6.438;2022-10-26T13:13:25;19.40;99.90
55004;DHT22;40900;52.710;6.438;2022-10-26T13:15:53;19.30;99.90
55004;DHT22;40900;52.710;6.438;2022-10-26T13:18:20;19.20;99.90
55004;DHT22;40900;52.710;6.438;2022-10-26T13:21:09;19.20;99.90
55004;DHT22;40900;52.710;6.438;2022-10-26T13:24:00;19.10;99.90
55004;DHT22;40900;52.710;6.438;2022-10-26T13:26:31;19.10;99.90
55004;DHT22;40900;52.710;6.438;2022-10-26T13:29:16;19.20;99.90
55004;DHT22;40900;52.710;6.438;2022-10-26T13:39:31;19.20;99.90
55004;DHT22;40900;52.710;6.438;2022-10-26T13:41:59;19.20;99.90
55004;DHT22;40900;52.710;6.438;2022-10-26T13:47:09;19.10;99.90
55004;DHT22;40900;52.710;6.438;2022-10-26T13:49:39;19.00;99.90
55004;DHT22;40900;52.710;6.438;2022-10-26T13:52:14;19.10;99.90
55004;DHT22;40900;52.710;6.438;2022-10-26T13:59:46;19.10;99.90
55004;DHT22;40900;52.710;6.438;2022-10-26T14:02:27;19.10;99.90
55004;DHT22;40900;52.710;6.438;2022-10-26T14:05:04;19.20;99.90
55004;DHT22;40900;52.710;6.438;2022-10-26T14:10:37;19.20;99.90
55004;DHT22;40900;52.710;6.438;2022-10-26T14:13:12;19.20;99.90
55004;DHT22;40900;52.710;6.438;2022-10-26T14:15:42;19.10;99.90
55004;DHT22;40900;52.710;6.438;2022-10-26T14:18:26;19.00;99.90
55004;DHT22;40900;52.710;6.438;2022-10-26T14:20:59;19.00;99.90
55004;DHT22;40900;52.710;6.438;2022-10-26T14:23:34;19.00;99.90
55004;DHT22;40900;52.710;6.438;2022-10-26T14:26:00;18.90;99.90
55004;DHT22;40900;52.710;6.438;2022-10-26T14:28:39;18.80;99.90
55004;DHT22;40900;52.710;6.438;2022-10-26T14:31:11;18.80;99.90
55004;DHT22;40900;52.710;6.438;2022-10-26T14:33:37;18.70;99.90
55004;DHT22;40900;52.710;6.438;2022-10-26T14:36:04;18.70;99.90
55004;DHT22;40900;52.710;6.438;2022-10-26T14:38:37;18.70;99.90
55004;DHT22;40900;52.710;6.438;2022-10-26T14:41:05;18.60;99.90
55004;DHT22;40900;52.710;6.438;2022-10-26T14:43:31;18.60;99.90
55004;DHT22;40900;52.710;6.438;2022-10-26T14:45:56;18.50;99.90
55004;DHT22;40900;52.710;6.438;2022-10-26T14:48:30;18.40;99.90
55004;DHT22;40900;52.710;6.438;2022-10-26T14:53:36;18.30;99.90
55004;DHT22;40900;52.710;6.438;2022-10-26T14:56:04;18.30;99.90
55004;DHT22;40900;52.710;6.438;2022-10-26T14:58:31;18.30;99.90
55004;DHT22;40900;52.710;6.438;2022-10-26T15:04:05;18.20;99.90
55004;DHT22;40900;52.710;6.438;2022-10-26T15:09:00;18.00;99.90
55004;DHT22;40900;52.710;6.438;2022-10-26T15:11:26;18.00;99.90
55004;DHT22;40900;52.710;6.438;2022-10-26T15:13:53;18.00;99.90
55004;DHT22;40900;52.710;6.438;2022-10-26T15:16:22;18.00;99.90
55004;DHT22;40900;52.710;6.438;2022-10-26T15:18:51;18.00;99.90
55004;DHT22;40900;52.710;6.438;2022-10-26T15:21:31;18.00;99.90
55004;DHT22;40900;52.710;6.438;2022-10-26T15:23:58;18.00;99.90
55004;DHT22;40900;52.710;6.438;2022-10-26T15:26:25;17.90;99.90
55004;DHT22;40900;52.710;6.438;2022-10-26T15:28:52;17.80;99.90
55004;DHT22;40900;52.710;6.438;2022-10-26T15:36:24;17.70;99.90
55004;DHT22;40900;52.710;6.438;2022-10-26T15:38:50;17.60;99.90
55004;DHT22;40900;52.710;6.438;2022-10-26T15:41:29;17.60;99.90
55004;DHT22;40900;52.710;6.438;2022-10-26T15:43:57;17.60;99.90
55004;DHT22;40900;52.710;6.438;2022-10-26T15:46:36;17.60;99.90
55004;DHT22;40900;52.710;6.438;2022-10-26T15:49:06;17.50;99.90
55004;DHT22;40900;52.710;6.438;2022-10-26T15:51:33;17.50;99.90
55004;DHT22;40900;52.710;6.438;2022-10-26T15:54:01;17.50;99.90
55004;DHT22;40900;52.710;6.438;2022-10-26T15:56:28;17.50;99.90
55004;DHT22;40900;52.710;6.438;2022-10-26T15:58:56;17.50;99.90
55004;DHT22;40900;52.710;6.438;2022-10-26T16:01:26;17.40;99.90
55004;DHT22;40900;52.710;6.438;2022-10-26T16:03:52;17.40;99.90
55004;DHT22;40900;52.710;6.438;2022-10-26T16:08:51;17.30;99.90
55004;DHT22;40900;52.710;6.438;2022-10-26T16:11:17;17.30;99.90
55004;DHT22;40900;52.710;6.438;2022-10-26T16:13:43;17.30;99.90
55004;DHT22;40900;52.710;6.438;2022-10-26T16:16:14;17.20;99.90
55004;DHT22;40900;52.710;6.438;2022-10-26T16:18:40;17.20;99.90
55004;DHT22;40900;52.710;6.438;2022-10-26T16:21:13;17.20;99.90
55004;DHT22;40900;52.710;6.438;2022-10-26T16:23:39;17.20;99.90
55004;DHT22;40900;52.710;6.438;2022-10-26T16:26:05;17.20;99.90
55004;DHT22;40900;52.710;6.438;2022-10-26T16:28:31;17.20;99.90
55004;DHT22;40900;52.710;6.438;2022-10-26T16:30:59;17.30;99.90
55004;DHT22;40900;52.710;6.438;2022-10-26T16:33:24;17.20;99.90
55004;DHT22;40900;52.710;6.438;2022-10-26T16:35:57;17.20;99.90
55004;DHT22;40900;52.710;6.438;2022-10-26T16:38:24;17.30;99.90
55004;DHT22;40900;52.710;6.438;2022-10-26T16:41:06;17.20;99.90
55004;DHT22;40900;52.710;6.438;2022-10-26T16:43:36;17.30;99.90
55004;DHT22;40900;52.710;6.438;2022-10-26T16:46:17;17.30;99.90
55004;DHT22;40900;52.710;6.438;2022-10-26T16:48:45;17.30;99.90
55004;DHT22;40900;52.710;6.438;2022-10-26T16:51:17;17.30;99.90
55004;DHT22;40900;52.710;6.438;2022-10-26T16:53:45;17.20;99.90
55004;DHT22;40900;52.710;6.438;2022-10-26T16:56:13;17.30;99.90
55004;DHT22;40900;52.710;6.438;2022-10-26T16:58:39;17.30;99.90
55004;DHT22;40900;52.710;6.438;2022-10-26T17:01:06;17.30;99.90
55004;DHT22;40900;52.710;6.438;2022-10-26T17:03:33;17.30;99.90
55004;DHT22;40900;52.710;6.438;2022-10-26T17:06:04;17.40;99.90
55004;DHT22;40900;52.710;6.438;2022-10-26T17:08:32;17.30;99.90
55004;DHT22;40900;52.710;6.438;2022-10-26T17:11:25;17.30;99.90
55004;DHT22;40900;52.710;6.438;2022-10-26T17:13:54;17.30;99.90
55004;DHT22;40900;52.710;6.438;2022-10-26T17:16:21;17.30;99.90
55004;DHT22;40900;52.710;6.438;2022-10-26T17:18:47;17.30;99.90
55004;DHT22;40900;52.710;6.438;2022-10-26T17:21:15;17.20;99.90
55004;DHT22;40900;52.710;6.438;2022-10-26T17:23:42;17.20;99.90
55004;DHT22;40900;52.710;6.438;2022-10-26T17:26:11;17.10;99.90
55004;DHT22;40900;52.710;6.438;2022-10-26T17:28:37;17.10;99.90
55004;DHT22;40900;52.710;6.438;2022-10-26T17:31:13;17.00;99.90
55004;DHT22;40900;52.710;6.438;2022-10-26T17:33:41;17.00;99.90
55004;DHT22;40900;52.710;6.438;2022-10-26T17:36:11;16.90;99.90
55004;DHT22;40900;52.710;6.438;2022-10-26T17:38:39;16.80;99.90
55004;DHT22;40900;52.710;6.438;2022-10-26T17:41:14;16.80;99.90
55004;DHT22;40900;52.710;6.438;2022-10-26T17:43:41;16.70;99.90
55004;DHT22;40900;52.710;6.438;2022-10-26T17:46:09;16.60;99.90
55004;DHT22;40900;52.710;6.438;2022-10-26T17:48:35;16.60;99.90
55004;DHT22;40900;52.710;6.438;2022-10-26T17:51:03;16.60;99.90
55004;DHT22;40900;52.710;6.438;2022-10-26T17:53:30;16.50;99.90
55004;DHT22;40900;52.710;6.438;2022-10-26T17:56:00;16.50;99.90
55004;DHT22;40900;52.710;6.438;2022-10-26T17:58:26;16.40;99.90
55004;DHT22;40900;52.710;6.438;2022-10-26T18:00:53;16.40;99.90
55004;DHT22;40900;52.710;6.438;2022-10-26T18:03:19;16.30;99.90
55004;DHT22;40900;52.710;6.438;2022-10-26T18:05:49;16.30;99.90
55004;DHT22;40900;52.710;6.438;2022-10-26T18:08:15;16.20;99.90
55004;DHT22;40900;52.710;6.438;2022-10-26T18:10:53;16.20;99.90
55004;DHT22;40900;52.710;6.438;2022-10-26T18:13:23;16.20;99.90
55004;DHT22;40900;52.710;6.438;2022-10-26T18:15:49;16.10;99.90
55004;DHT22;40900;52.710;6.438;2022-10-26T18:18:14;16.10;99.90
55004;DHT22;40900;52.710;6.438;2022-10-26T18:20:40;16.10;99.90
55004;DHT22;40900;52.710;6.438;2022-10-26T18:23:06;16.00;99.90
55004;DHT22;40900;52.710;6.438;2022-10-26T18:25:31;16.00;99.90
55004;DHT22;40900;52.710;6.438;2022-10-26T18:27:58;16.10;99.90
55004;DHT22;40900;52.710;6.438;2022-10-26T18:30:24;16.00;99.90
55004;DHT22;40900;52.710;6.438;2022-10-26T18:32:51;16.00;99.90
55004;DHT22;40900;52.710;6.438;2022-10-26T18:35:17;16.00;99.90
55004;DHT22;40900;52.710;6.438;2022-10-26T18:37:43;15.90;99.90
55004;DHT22;40900;52.710;6.438;2022-10-26T18:40:10;16.00;99.90
55004;DHT22;40900;52.710;6.438;2022-10-26T18:42:36;15.90;99.90
55004;DHT22;40900;52.710;6.438;2022-10-26T18:45:02;15.90;99.90
55004;DHT22;40900;52.710;6.438;2022-10-26T18:47:32;15.90;99.90
55004;DHT22;40900;52.710;6.438;2022-10-26T18:49:58;15.90;99.90